sensor_id;sensor_type;location;lat;lon;timestamp;P1;durP1;ratioP1;P2;durP2;ratioP2
16979;SDS011;42288;52.182;21.156;2023-08-30T00:02:23;31.07;;;21.00;;
16979;SDS011;42288;52.182;21.156;2023-08-30T00:04:48;31.47;;;21.83;;
16979;SDS011;42288;52.182;21.156;2023-08-30T00:07:14;31.60;;;21.93;;
16979;SDS011;42288;52.182;21.156;2023-08-30T00:09:40;32.67;;;22.27;;
16979;SDS011;42288;52.182;21.156;2023-08-30T00:12:05;33.53;;;22.60;;
16979;SDS011;42288;52.182;21.156;2023-08-30T00:14:31;31.70;;;23.87;;
16979;SDS011;42288;52.182;21.156;2023-08-30T00:16:57;35.10;;;24.43;;
16979;SDS011;42288;52.182;21.156;2023-08-30T00:19:23;39.57;;;22.53;;
16979;SDS011;42288;52.182;21.156;2023-08-30T00:21:48;34.30;;;24.47;;
16979;SDS011;42288;52.182;21.156;2023-08-30T00:24:14;32.60;;;24.13;;
16979;SDS011;42288;52.182;21.156;2023-08-30T00:26:39;38.00;;;25.20;;
16979;SDS011;42288;52.182;21.156;2023-08-30T00:29:05;40.07;;;24.77;;
16979;SDS011;42288;52.182;21.156;2023-08-30T00:31:30;36.73;;;23.77;;
16979;SDS011;42288;52.182;21.156;2023-08-30T00:33:56;36.03;;;23.83;;
16979;SDS011;42288;52.182;21.156;2023-08-30T00:36:21;36.47;;;23.63;;
16979;SDS011;42288;52.182;21.156;2023-08-30T00:38:47;31.30;;;24.20;;
16979;SDS011;42288;52.182;21.156;2023-08-30T00:41:12;33.10;;;22.90;;
16979;SDS011;42288;52.182;21.156;2023-08-30T00:43:38;35.67;;;24.80;;
16979;SDS011;42288;52.182;21.156;2023-08-30T00:46:04;34.73;;;23.47;;
16979;SDS011;42288;52.182;21.156;2023-08-30T00:48:29;34.30;;;24.70;;
16979;SDS011;42288;52.182;21.156;2023-08-30T00:50:55;36.90;;;24.13;;
16979;SDS011;42288;52.182;21.156;2023-08-30T00:53:21;39.60;;;26.73;;
16979;SDS011;42288;52.182;21.156;2023-08-30T00:55:46;38.73;;;25.97;;
16979;SDS011;42288;52.182;21.156;2023-08-30T00:58:12;34.53;;;24.23;;
16979;SDS011;42288;52.182;21.156;2023-08-30T01:00:38;35.37;;;23.60;;
16979;SDS011;42288;52.182;21.156;2023-08-30T01:03:05;37.87;;;25.70;;
16979;SDS011;42288;52.182;21.156;2023-08-30T01:05:32;33.20;;;21.90;;
16979;SDS011;42288;52.182;21.156;2023-08-30T01:07:58;32.63;;;22.63;;
16979;SDS011;42288;52.182;21.156;2023-08-30T01:10:27;34.63;;;22.53;;
16979;SDS011;42288;52.182;21.156;2023-08-30T01:13:08;30.97;;;19.93;;
16979;SDS011;42288;52.182;21.156;2023-08-30T01:15:36;33.03;;;22.27;;
16979;SDS011;42288;52.182;21.156;2023-08-30T01:18:04;34.17;;;22.43;;
16979;SDS011;42288;52.182;21.156;2023-08-30T01:20:32;37.97;;;23.93;;
16979;SDS011;42288;52.182;21.156;2023-08-30T01:23:05;40.67;;;23.77;;
16979;SDS011;42288;52.182;21.156;2023-08-30T01:28:06;39.63;;;24.90;;
16979;SDS011;42288;52.182;21.156;2023-08-30T01:30:33;39.23;;;25.00;;
16979;SDS011;42288;52.182;21.156;2023-08-30T01:33:02;42.33;;;25.43;;
16979;SDS011;42288;52.182;21.156;2023-08-30T01:35:29;39.20;;;24.43;;
16979;SDS011;42288;52.182;21.156;2023-08-30T01:37:58;37.33;;;23.03;;
16979;SDS011;42288;52.182;21.156;2023-08-30T01:40:25;40.37;;;23.43;;
16979;SDS011;42288;52.182;21.156;2023-08-30T01:42:53;57.00;;;29.33;;
16979;SDS011;42288;52.182;21.156;2023-08-30T01:45:20;48.37;;;26.70;;
16979;SDS011;42288;52.182;21.156;2023-08-30T01:47:47;51.73;;;28.13;;
16979;SDS011;42288;52.182;21.156;2023-08-30T01:50:13;51.00;;;27.67;;
16979;SDS011;42288;52.182;21.156;2023-08-30T01:52:40;50.47;;;27.77;;
16979;SDS011;42288;52.182;21.156;2023-08-30T01:55:07;61.67;;;31.40;;
16979;SDS011;42288;52.182;21.156;2023-08-30T01:57:34;54.07;;;28.23;;
16979;SDS011;42288;52.182;21.156;2023-08-30T01:59:59;47.17;;;26.33;;
16979;SDS011;42288;52.182;21.156;2023-08-30T02:02:28;42.17;;;25.67;;
16979;SDS011;42288;52.182;21.156;2023-08-30T02:04:54;47.10;;;26.83;;
16979;SDS011;42288;52.182;21.156;2023-08-30T02:07:22;39.87;;;25.23;;
16979;SDS011;42288;52.182;21.156;2023-08-30T02:09:58;36.93;;;24.27;;
16979;SDS011;42288;52.182;21.156;2023-08-30T02:12:30;36.00;;;22.70;;
16979;SDS011;42288;52.182;21.156;2023-08-30T02:15:01;35.87;;;22.70;;
16979;SDS011;42288;52.182;21.156;2023-08-30T02:17:27;33.60;;;21.83;;
16979;SDS011;42288;52.182;21.156;2023-08-30T02:19:55;33.60;;;22.23;;
16979;SDS011;42288;52.182;21.156;2023-08-30T02:22:20;38.50;;;25.30;;
16979;SDS011;42288;52.182;21.156;2023-08-30T02:24:46;37.93;;;25.40;;
16979;SDS011;42288;52.182;21.156;2023-08-30T02:27:11;36.43;;;23.30;;
16979;SDS011;42288;52.182;21.156;2023-08-30T02:29:37;36.07;;;24.83;;
16979;SDS011;42288;52.182;21.156;2023-08-30T02:32:02;36.67;;;24.27;;
16979;SDS011;42288;52.182;21.156;2023-08-30T02:34:28;37.60;;;24.80;;
16979;SDS011;42288;52.182;21.156;2023-08-30T02:36:54;41.77;;;26.43;;
16979;SDS011;42288;52.182;21.156;2023-08-30T02:39:20;37.40;;;23.77;;
16979;SDS011;42288;52.182;21.156;2023-08-30T02:41:46;39.77;;;26.40;;
16979;SDS011;42288;52.182;21.156;2023-08-30T02:44:11;44.30;;;27.57;;
16979;SDS011;42288;52.182;21.156;2023-08-30T02:46:37;41.33;;;24.57;;
16979;SDS011;42288;52.182;21.156;2023-08-30T02:49:03;38.77;;;25.27;;
16979;SDS011;42288;52.182;21.156;2023-08-30T02:51:29;39.07;;;22.50;;
16979;SDS011;42288;52.182;21.156;2023-08-30T02:53:54;38.23;;;24.60;;
16979;SDS011;42288;52.182;21.156;2023-08-30T02:56:20;40.97;;;24.00;;
16979;SDS011;42288;52.182;21.156;2023-08-30T02:58:45;38.40;;;23.40;;
16979;SDS011;42288;52.182;21.156;2023-08-30T03:01:11;40.00;;;23.53;;
16979;SDS011;42288;52.182;21.156;2023-08-30T03:03:36;40.17;;;23.53;;
16979;SDS011;42288;52.182;21.156;2023-08-30T03:06:02;35.60;;;22.03;;
16979;SDS011;42288;52.182;21.156;2023-08-30T03:08:28;41.90;;;24.37;;
16979;SDS011;42288;52.182;21.156;2023-08-30T03:10:53;36.70;;;22.33;;
16979;SDS011;42288;52.182;21.156;2023-08-30T03:13:19;42.70;;;23.53;;
16979;SDS011;42288;52.182;21.156;2023-08-30T03:15:44;38.67;;;21.87;;
16979;SDS011;42288;52.182;21.156;2023-08-30T03:18:10;40.57;;;23.33;;
16979;SDS011;42288;52.182;21.156;2023-08-30T03:20:35;38.33;;;22.63;;
16979;SDS011;42288;52.182;21.156;2023-08-30T03:23:01;39.00;;;22.33;;
16979;SDS011;42288;52.182;21.156;2023-08-30T03:25:30;37.30;;;22.27;;
16979;SDS011;42288;52.182;21.156;2023-08-30T03:27:55;38.60;;;22.57;;
16979;SDS011;42288;52.182;21.156;2023-08-30T03:30:21;41.70;;;24.27;;
16979;SDS011;42288;52.182;21.156;2023-08-30T03:32:46;40.20;;;22.57;;
16979;SDS011;42288;52.182;21.156;2023-08-30T03:35:12;40.80;;;22.07;;
16979;SDS011;42288;52.182;21.156;2023-08-30T03:37:39;28.47;;;19.60;;
16979;SDS011;42288;52.182;21.156;2023-08-30T03:40:05;39.03;;;20.50;;
16979;SDS011;42288;52.182;21.156;2023-08-30T03:42:32;31.47;;;20.23;;
16979;SDS011;42288;52.182;21.156;2023-08-30T03:44:57;32.87;;;19.33;;
16979;SDS011;42288;52.182;21.156;2023-08-30T03:47:23;28.33;;;18.40;;
16979;SDS011;42288;52.182;21.156;2023-08-30T03:49:48;36.20;;;21.97;;
16979;SDS011;42288;52.182;21.156;2023-08-30T03:52:14;31.53;;;19.40;;
16979;SDS011;42288;52.182;21.156;2023-08-30T03:54:39;25.40;;;16.87;;
16979;SDS011;42288;52.182;21.156;2023-08-30T03:57:05;37.63;;;20.70;;
16979;SDS011;42288;52.182;21.156;2023-08-30T03:59:30;38.03;;;22.03;;
16979;SDS011;42288;52.182;21.156;2023-08-30T04:01:56;36.63;;;20.83;;
16979;SDS011;42288;52.182;21.156;2023-08-30T04:04:22;33.37;;;21.00;;
16979;SDS011;42288;52.182;21.156;2023-08-30T04:06:47;41.47;;;22.60;;
16979;SDS011;42288;52.182;21.156;2023-08-30T04:09:13;39.37;;;21.93;;
16979;SDS011;42288;52.182;21.156;2023-08-30T04:11:38;32.23;;;20.47;;
16979;SDS011;42288;52.182;21.156;2023-08-30T04:14:04;31.67;;;18.10;;
16979;SDS011;42288;52.182;21.156;2023-08-30T04:16:29;33.30;;;19.60;;
16979;SDS011;42288;52.182;21.156;2023-08-30T04:18:55;34.70;;;20.47;;
16979;SDS011;42288;52.182;21.156;2023-08-30T04:21:20;33.63;;;20.40;;
16979;SDS011;42288;52.182;21.156;2023-08-30T04:23:46;32.07;;;19.57;;
16979;SDS011;42288;52.182;21.156;2023-08-30T04:26:11;32.10;;;20.40;;
16979;SDS011;42288;52.182;21.156;2023-08-30T04:28:37;30.77;;;19.80;;
16979;SDS011;42288;52.182;21.156;2023-08-30T04:31:02;32.60;;;21.30;;
16979;SDS011;42288;52.182;21.156;2023-08-30T04:33:28;35.67;;;21.27;;
16979;SDS011;42288;52.182;21.156;2023-08-30T04:35:54;33.10;;;19.77;;
16979;SDS011;42288;52.182;21.156;2023-08-30T04:38:20;30.43;;;19.00;;
16979;SDS011;42288;52.182;21.156;2023-08-30T04:40:46;31.80;;;19.73;;
16979;SDS011;42288;52.182;21.156;2023-08-30T04:43:12;34.23;;;21.07;;
16979;SDS011;42288;52.182;21.156;2023-08-30T04:45:38;29.47;;;19.23;;
16979;SDS011;42288;52.182;21.156;2023-08-30T04:48:04;31.50;;;19.27;;
16979;SDS011;42288;52.182;21.156;2023-08-30T04:50:30;28.77;;;19.00;;
16979;SDS011;42288;52.182;21.156;2023-08-30T04:52:56;27.67;;;17.20;;
16979;SDS011;42288;52.182;21.156;2023-08-30T04:55:25;29.83;;;19.13;;
16979;SDS011;42288;52.182;21.156;2023-08-30T04:57:50;43.70;;;24.00;;
16979;SDS011;42288;52.182;21.156;2023-08-30T05:00:16;35.63;;;20.67;;
16979;SDS011;42288;52.182;21.156;2023-08-30T05:02:43;33.40;;;20.47;;
16979;SDS011;42288;52.182;21.156;2023-08-30T05:05:11;32.87;;;20.20;;
16979;SDS011;42288;52.182;21.156;2023-08-30T05:07:37;32.20;;;20.67;;
16979;SDS011;42288;52.182;21.156;2023-08-30T05:10:03;34.90;;;21.30;;
16979;SDS011;42288;52.182;21.156;2023-08-30T05:12:29;39.73;;;22.03;;
16979;SDS011;42288;52.182;21.156;2023-08-30T05:14:54;29.80;;;19.23;;
16979;SDS011;42288;52.182;21.156;2023-08-30T05:17:20;32.67;;;21.40;;
16979;SDS011;42288;52.182;21.156;2023-08-30T05:19:46;32.60;;;20.43;;
16979;SDS011;42288;52.182;21.156;2023-08-30T05:22:11;30.50;;;21.03;;
16979;SDS011;42288;52.182;21.156;2023-08-30T05:24:37;33.63;;;21.20;;
16979;SDS011;42288;52.182;21.156;2023-08-30T05:27:02;38.13;;;21.93;;
16979;SDS011;42288;52.182;21.156;2023-08-30T05:29:28;35.00;;;21.30;;
16979;SDS011;42288;52.182;21.156;2023-08-30T05:31:54;36.27;;;22.73;;
16979;SDS011;42288;52.182;21.156;2023-08-30T05:34:19;37.60;;;22.43;;
16979;SDS011;42288;52.182;21.156;2023-08-30T05:36:45;33.53;;;20.90;;
16979;SDS011;42288;52.182;21.156;2023-08-30T05:39:10;35.17;;;22.73;;
16979;SDS011;42288;52.182;21.156;2023-08-30T05:41:36;31.63;;;20.40;;
16979;SDS011;42288;52.182;21.156;2023-08-30T05:44:02;36.67;;;23.40;;
16979;SDS011;42288;52.182;21.156;2023-08-30T05:46:28;36.40;;;20.50;;
16979;SDS011;42288;52.182;21.156;2023-08-30T05:48:53;36.97;;;23.97;;
16979;SDS011;42288;52.182;21.156;2023-08-30T05:51:19;35.47;;;22.97;;
16979;SDS011;42288;52.182;21.156;2023-08-30T05:53:45;37.93;;;23.37;;
16979;SDS011;42288;52.182;21.156;2023-08-30T05:56:10;37.23;;;23.10;;
16979;SDS011;42288;52.182;21.156;2023-08-30T05:58:36;39.90;;;23.40;;
16979;SDS011;42288;52.182;21.156;2023-08-30T06:01:03;39.03;;;23.17;;
16979;SDS011;42288;52.182;21.156;2023-08-30T06:03:31;40.20;;;24.93;;
16979;SDS011;42288;52.182;21.156;2023-08-30T06:05:56;41.67;;;24.97;;
16979;SDS011;42288;52.182;21.156;2023-08-30T06:08:22;43.33;;;27.33;;
16979;SDS011;42288;52.182;21.156;2023-08-30T06:10:48;38.60;;;23.37;;
16979;SDS011;42288;52.182;21.156;2023-08-30T06:13:13;35.63;;;23.10;;
16979;SDS011;42288;52.182;21.156;2023-08-30T06:15:39;42.40;;;25.30;;
16979;SDS011;42288;52.182;21.156;2023-08-30T06:18:04;41.73;;;24.53;;
16979;SDS011;42288;52.182;21.156;2023-08-30T06:20:30;38.43;;;23.90;;
16979;SDS011;42288;52.182;21.156;2023-08-30T06:22:57;40.33;;;25.00;;
16979;SDS011;42288;52.182;21.156;2023-08-30T06:25:23;39.43;;;23.37;;
16979;SDS011;42288;52.182;21.156;2023-08-30T06:27:56;36.93;;;23.43;;
16979;SDS011;42288;52.182;21.156;2023-08-30T06:30:23;36.63;;;22.43;;
16979;SDS011;42288;52.182;21.156;2023-08-30T06:32:53;34.53;;;21.00;;
16979;SDS011;42288;52.182;21.156;2023-08-30T06:35:19;39.43;;;23.37;;
16979;SDS011;42288;52.182;21.156;2023-08-30T06:37:44;32.73;;;20.70;;
16979;SDS011;42288;52.182;21.156;2023-08-30T06:40:10;33.90;;;20.57;;
16979;SDS011;42288;52.182;21.156;2023-08-30T06:42:35;29.13;;;19.03;;
16979;SDS011;42288;52.182;21.156;2023-08-30T06:45:01;28.90;;;17.83;;
16979;SDS011;42288;52.182;21.156;2023-08-30T06:47:27;26.03;;;17.50;;
16979;SDS011;42288;52.182;21.156;2023-08-30T06:49:53;26.20;;;17.57;;
16979;SDS011;42288;52.182;21.156;2023-08-30T06:52:18;29.73;;;18.03;;
16979;SDS011;42288;52.182;21.156;2023-08-30T06:54:44;33.70;;;20.43;;
16979;SDS011;42288;52.182;21.156;2023-08-30T06:57:09;32.13;;;20.00;;
16979;SDS011;42288;52.182;21.156;2023-08-30T06:59:35;30.73;;;21.47;;
16979;SDS011;42288;52.182;21.156;2023-08-30T07:02:01;31.80;;;20.80;;
16979;SDS011;42288;52.182;21.156;2023-08-30T07:04:27;29.07;;;19.00;;
16979;SDS011;42288;52.182;21.156;2023-08-30T07:06:53;31.13;;;20.87;;
16979;SDS011;42288;52.182;21.156;2023-08-30T07:09:19;29.50;;;18.83;;
16979;SDS011;42288;52.182;21.156;2023-08-30T07:11:44;33.87;;;20.20;;
16979;SDS011;42288;52.182;21.156;2023-08-30T07:14:10;28.97;;;17.70;;
16979;SDS011;42288;52.182;21.156;2023-08-30T07:16:37;27.73;;;18.27;;
16979;SDS011;42288;52.182;21.156;2023-08-30T07:19:03;28.27;;;18.33;;
16979;SDS011;42288;52.182;21.156;2023-08-30T07:21:29;22.70;;;16.47;;
16979;SDS011;42288;52.182;21.156;2023-08-30T07:23:55;27.83;;;18.70;;
16979;SDS011;42288;52.182;21.156;2023-08-30T07:26:20;29.53;;;18.87;;
16979;SDS011;42288;52.182;21.156;2023-08-30T07:28:46;30.53;;;19.97;;
16979;SDS011;42288;52.182;21.156;2023-08-30T07:31:11;30.83;;;20.77;;
16979;SDS011;42288;52.182;21.156;2023-08-30T07:33:43;30.77;;;20.03;;
16979;SDS011;42288;52.182;21.156;2023-08-30T07:36:09;32.53;;;20.33;;
16979;SDS011;42288;52.182;21.156;2023-08-30T07:38:34;35.27;;;21.77;;
16979;SDS011;42288;52.182;21.156;2023-08-30T07:41:00;30.87;;;19.63;;
16979;SDS011;42288;52.182;21.156;2023-08-30T07:43:26;31.10;;;18.97;;
16979;SDS011;42288;52.182;21.156;2023-08-30T07:45:52;37.03;;;22.77;;
16979;SDS011;42288;52.182;21.156;2023-08-30T07:48:17;29.37;;;19.20;;
16979;SDS011;42288;52.182;21.156;2023-08-30T07:50:43;30.73;;;19.77;;
16979;SDS011;42288;52.182;21.156;2023-08-30T07:53:08;37.20;;;22.53;;
16979;SDS011;42288;52.182;21.156;2023-08-30T07:55:35;37.67;;;22.53;;
16979;SDS011;42288;52.182;21.156;2023-08-30T07:58:01;42.07;;;24.63;;
16979;SDS011;42288;52.182;21.156;2023-08-30T08:00:28;39.80;;;23.47;;
16979;SDS011;42288;52.182;21.156;2023-08-30T08:02:53;42.47;;;24.50;;
16979;SDS011;42288;52.182;21.156;2023-08-30T08:05:19;36.97;;;22.40;;
16979;SDS011;42288;52.182;21.156;2023-08-30T08:07:45;42.03;;;24.40;;
16979;SDS011;42288;52.182;21.156;2023-08-30T08:10:11;42.57;;;25.27;;
16979;SDS011;42288;52.182;21.156;2023-08-30T08:12:36;45.40;;;25.07;;
16979;SDS011;42288;52.182;21.156;2023-08-30T08:15:02;44.33;;;24.67;;
16979;SDS011;42288;52.182;21.156;2023-08-30T08:17:28;45.20;;;25.23;;
16979;SDS011;42288;52.182;21.156;2023-08-30T08:19:54;42.33;;;24.53;;
16979;SDS011;42288;52.182;21.156;2023-08-30T08:22:19;47.87;;;25.70;;
16979;SDS011;42288;52.182;21.156;2023-08-30T08:24:45;45.77;;;26.37;;
16979;SDS011;42288;52.182;21.156;2023-08-30T08:27:11;49.97;;;26.03;;
16979;SDS011;42288;52.182;21.156;2023-08-30T08:29:37;53.87;;;28.93;;
16979;SDS011;42288;52.182;21.156;2023-08-30T08:32:03;46.77;;;26.90;;
16979;SDS011;42288;52.182;21.156;2023-08-30T08:34:28;47.87;;;26.03;;
16979;SDS011;42288;52.182;21.156;2023-08-30T08:36:54;49.67;;;27.83;;
16979;SDS011;42288;52.182;21.156;2023-08-30T08:39:20;58.70;;;29.87;;
16979;SDS011;42288;52.182;21.156;2023-08-30T08:41:45;48.13;;;24.70;;
16979;SDS011;42288;52.182;21.156;2023-08-30T08:44:11;50.73;;;26.50;;
16979;SDS011;42288;52.182;21.156;2023-08-30T08:46:39;51.47;;;27.07;;
16979;SDS011;42288;52.182;21.156;2023-08-30T08:49:08;51.27;;;27.07;;
16979;SDS011;42288;52.182;21.156;2023-08-30T08:51:38;49.37;;;25.87;;
16979;SDS011;42288;52.182;21.156;2023-08-30T08:54:05;48.27;;;26.80;;
16979;SDS011;42288;52.182;21.156;2023-08-30T08:56:31;44.87;;;24.73;;
16979;SDS011;42288;52.182;21.156;2023-08-30T08:58:58;36.93;;;22.70;;
16979;SDS011;42288;52.182;21.156;2023-08-30T09:01:24;48.37;;;26.10;;
16979;SDS011;42288;52.182;21.156;2023-08-30T09:03:50;39.70;;;21.97;;
16979;SDS011;42288;52.182;21.156;2023-08-30T09:06:16;44.87;;;23.80;;
16979;SDS011;42288;52.182;21.156;2023-08-30T09:08:42;40.30;;;22.87;;
16979;SDS011;42288;52.182;21.156;2023-08-30T09:11:08;30.17;;;18.93;;
16979;SDS011;42288;52.182;21.156;2023-08-30T09:13:33;34.73;;;19.60;;
16979;SDS011;42288;52.182;21.156;2023-08-30T09:15:59;36.23;;;19.53;;
16979;SDS011;42288;52.182;21.156;2023-08-30T09:18:25;40.47;;;20.57;;
16979;SDS011;42288;52.182;21.156;2023-08-30T09:21:04;35.27;;;20.93;;
16979;SDS011;42288;52.182;21.156;2023-08-30T09:23:32;28.67;;;17.80;;
16979;SDS011;42288;52.182;21.156;2023-08-30T09:25:59;36.73;;;20.43;;
16979;SDS011;42288;52.182;21.156;2023-08-30T09:28:25;34.40;;;19.17;;
16979;SDS011;42288;52.182;21.156;2023-08-30T09:30:51;39.47;;;21.33;;
16979;SDS011;42288;52.182;21.156;2023-08-30T09:33:20;38.63;;;21.27;;
16979;SDS011;42288;52.182;21.156;2023-08-30T09:35:59;44.03;;;19.67;;
16979;SDS011;42288;52.182;21.156;2023-08-30T09:38:25;32.00;;;17.73;;
16979;SDS011;42288;52.182;21.156;2023-08-30T09:40:52;26.80;;;15.77;;
16979;SDS011;42288;52.182;21.156;2023-08-30T09:43:27;27.40;;;15.60;;
16979;SDS011;42288;52.182;21.156;2023-08-30T09:45:53;26.37;;;15.50;;
16979;SDS011;42288;52.182;21.156;2023-08-30T09:48:21;17.13;;;11.27;;
16979;SDS011;42288;52.182;21.156;2023-08-30T09:50:49;20.30;;;12.60;;
16979;SDS011;42288;52.182;21.156;2023-08-30T09:53:20;13.43;;;9.87;;
16979;SDS011;42288;52.182;21.156;2023-08-30T09:55:50;16.07;;;10.07;;
16979;SDS011;42288;52.182;21.156;2023-08-30T09:58:17;14.43;;;10.57;;
16979;SDS011;42288;52.182;21.156;2023-08-30T10:00:42;15.93;;;9.93;;
16979;SDS011;42288;52.182;21.156;2023-08-30T10:03:08;16.27;;;9.73;;
16979;SDS011;42288;52.182;21.156;2023-08-30T10:05:35;15.40;;;9.63;;
16979;SDS011;42288;52.182;21.156;2023-08-30T10:08:00;17.47;;;10.17;;
16979;SDS011;42288;52.182;21.156;2023-08-30T10:10:28;17.93;;;11.13;;
16979;SDS011;42288;52.182;21.156;2023-08-30T10:12:56;18.83;;;11.17;;
16979;SDS011;42288;52.182;21.156;2023-08-30T10:15:22;16.70;;;9.73;;
16979;SDS011;42288;52.182;21.156;2023-08-30T10:17:51;14.10;;;8.97;;
16979;SDS011;42288;52.182;21.156;2023-08-30T10:20:19;14.60;;;10.10;;
16979;SDS011;42288;52.182;21.156;2023-08-30T10:22:45;16.87;;;9.77;;
16979;SDS011;42288;52.182;21.156;2023-08-30T10:25:13;14.43;;;9.80;;
16979;SDS011;42288;52.182;21.156;2023-08-30T10:27:43;11.93;;;7.77;;
16979;SDS011;42288;52.182;21.156;2023-08-30T10:30:12;12.90;;;8.97;;
16979;SDS011;42288;52.182;21.156;2023-08-30T10:32:42;11.70;;;8.23;;
16979;SDS011;42288;52.182;21.156;2023-08-30T10:35:16;13.70;;;7.67;;
16979;SDS011;42288;52.182;21.156;2023-08-30T10:37:53;12.17;;;7.80;;
16979;SDS011;42288;52.182;21.156;2023-08-30T10:40:23;14.17;;;7.87;;
16979;SDS011;42288;52.182;21.156;2023-08-30T10:43:03;10.10;;;7.50;;
16979;SDS011;42288;52.182;21.156;2023-08-30T10:45:29;11.47;;;7.27;;
16979;SDS011;42288;52.182;21.156;2023-08-30T10:47:56;12.13;;;8.57;;
16979;SDS011;42288;52.182;21.156;2023-08-30T10:50:29;12.37;;;8.23;;
16979;SDS011;42288;52.182;21.156;2023-08-30T10:52:56;11.70;;;7.80;;
16979;SDS011;42288;52.182;21.156;2023-08-30T10:55:22;9.10;;;6.33;;
16979;SDS011;42288;52.182;21.156;2023-08-30T10:57:57;11.67;;;6.70;;
16979;SDS011;42288;52.182;21.156;2023-08-30T11:00:28;11.23;;;6.70;;
16979;SDS011;42288;52.182;21.156;2023-08-30T11:02:54;8.70;;;6.03;;
16979;SDS011;42288;52.182;21.156;2023-08-30T11:05:21;10.83;;;5.70;;
16979;SDS011;42288;52.182;21.156;2023-08-30T11:07:48;9.47;;;6.10;;
16979;SDS011;42288;52.182;21.156;2023-08-30T11:10:15;8.43;;;5.83;;
16979;SDS011;42288;52.182;21.156;2023-08-30T11:12:42;8.43;;;5.20;;
16979;SDS011;42288;52.182;21.156;2023-08-30T11:15:09;7.73;;;5.20;;
16979;SDS011;42288;52.182;21.156;2023-08-30T11:17:36;8.93;;;5.67;;
16979;SDS011;42288;52.182;21.156;2023-08-30T11:20:09;9.23;;;5.67;;
16979;SDS011;42288;52.182;21.156;2023-08-30T11:22:39;9.67;;;6.00;;
16979;SDS011;42288;52.182;21.156;2023-08-30T11:25:11;8.23;;;5.20;;
16979;SDS011;42288;52.182;21.156;2023-08-30T11:27:38;7.87;;;4.87;;
16979;SDS011;42288;52.182;21.156;2023-08-30T11:30:04;8.90;;;6.10;;
16979;SDS011;42288;52.182;21.156;2023-08-30T11:32:38;8.90;;;6.00;;
16979;SDS011;42288;52.182;21.156;2023-08-30T11:35:04;7.57;;;5.63;;
16979;SDS011;42288;52.182;21.156;2023-08-30T11:37:31;7.27;;;5.70;;
16979;SDS011;42288;52.182;21.156;2023-08-30T11:39:57;10.40;;;6.33;;
16979;SDS011;42288;52.182;21.156;2023-08-30T11:42:24;12.33;;;7.03;;
16979;SDS011;42288;52.182;21.156;2023-08-30T11:44:50;12.47;;;7.30;;
16979;SDS011;42288;52.182;21.156;2023-08-30T11:47:22;14.30;;;7.23;;
16979;SDS011;42288;52.182;21.156;2023-08-30T11:49:49;14.27;;;7.40;;
16979;SDS011;42288;52.182;21.156;2023-08-30T11:52:16;9.13;;;6.13;;
16979;SDS011;42288;52.182;21.156;2023-08-30T11:54:43;9.83;;;6.30;;
16979;SDS011;42288;52.182;21.156;2023-08-30T11:57:09;9.57;;;5.73;;
16979;SDS011;42288;52.182;21.156;2023-08-30T11:59:35;7.10;;;4.70;;
16979;SDS011;42288;52.182;21.156;2023-08-30T12:02:02;7.40;;;5.47;;
16979;SDS011;42288;52.182;21.156;2023-08-30T12:04:28;11.47;;;5.27;;
16979;SDS011;42288;52.182;21.156;2023-08-30T12:06:55;9.43;;;5.20;;
16979;SDS011;42288;52.182;21.156;2023-08-30T12:09:21;7.83;;;5.03;;
16979;SDS011;42288;52.182;21.156;2023-08-30T12:11:47;6.63;;;4.63;;
16979;SDS011;42288;52.182;21.156;2023-08-30T12:14:16;8.13;;;5.43;;
16979;SDS011;42288;52.182;21.156;2023-08-30T12:16:44;8.80;;;4.43;;
16979;SDS011;42288;52.182;21.156;2023-08-30T12:19:12;8.07;;;4.27;;
16979;SDS011;42288;52.182;21.156;2023-08-30T12:21:41;9.00;;;4.70;;
16979;SDS011;42288;52.182;21.156;2023-08-30T12:24:07;10.10;;;5.33;;
16979;SDS011;42288;52.182;21.156;2023-08-30T12:26:33;7.87;;;5.27;;
16979;SDS011;42288;52.182;21.156;2023-08-30T12:28:59;10.30;;;6.20;;
16979;SDS011;42288;52.182;21.156;2023-08-30T12:31:24;4.93;;;3.60;;
16979;SDS011;42288;52.182;21.156;2023-08-30T12:33:50;5.43;;;3.20;;
16979;SDS011;42288;52.182;21.156;2023-08-30T12:36:15;5.60;;;3.30;;
16979;SDS011;42288;52.182;21.156;2023-08-30T12:38:41;10.77;;;3.63;;
16979;SDS011;42288;52.182;21.156;2023-08-30T12:41:06;6.17;;;3.60;;
16979;SDS011;42288;52.182;21.156;2023-08-30T12:43:32;6.37;;;3.53;;
16979;SDS011;42288;52.182;21.156;2023-08-30T12:45:57;5.40;;;3.80;;
16979;SDS011;42288;52.182;21.156;2023-08-30T12:48:23;6.10;;;4.67;;
16979;SDS011;42288;52.182;21.156;2023-08-30T12:50:48;6.13;;;4.53;;
16979;SDS011;42288;52.182;21.156;2023-08-30T12:53:14;5.87;;;4.30;;
16979;SDS011;42288;52.182;21.156;2023-08-30T12:55:41;6.87;;;4.33;;
16979;SDS011;42288;52.182;21.156;2023-08-30T12:58:07;7.47;;;4.70;;
16979;SDS011;42288;52.182;21.156;2023-08-30T13:00:33;7.33;;;3.97;;
16979;SDS011;42288;52.182;21.156;2023-08-30T13:03:00;4.87;;;3.63;;
16979;SDS011;42288;52.182;21.156;2023-08-30T13:05:26;6.03;;;4.20;;
16979;SDS011;42288;52.182;21.156;2023-08-30T13:07:52;5.37;;;4.20;;
16979;SDS011;42288;52.182;21.156;2023-08-30T13:10:17;7.43;;;4.53;;
16979;SDS011;42288;52.182;21.156;2023-08-30T13:12:43;7.37;;;4.53;;
16979;SDS011;42288;52.182;21.156;2023-08-30T13:15:09;7.37;;;4.60;;
16979;SDS011;42288;52.182;21.156;2023-08-30T13:17:35;8.73;;;4.33;;
16979;SDS011;42288;52.182;21.156;2023-08-30T13:20:00;8.07;;;5.77;;
16979;SDS011;42288;52.182;21.156;2023-08-30T13:22:27;9.73;;;5.97;;
16979;SDS011;42288;52.182;21.156;2023-08-30T13:24:52;11.07;;;6.93;;
16979;SDS011;42288;52.182;21.156;2023-08-30T13:27:18;9.53;;;5.90;;
16979;SDS011;42288;52.182;21.156;2023-08-30T13:29:44;9.03;;;5.90;;
16979;SDS011;42288;52.182;21.156;2023-08-30T13:32:10;10.43;;;5.80;;
16979;SDS011;42288;52.182;21.156;2023-08-30T13:34:35;9.17;;;6.57;;
16979;SDS011;42288;52.182;21.156;2023-08-30T13:37:01;9.97;;;6.07;;
16979;SDS011;42288;52.182;21.156;2023-08-30T13:39:26;8.33;;;5.70;;
16979;SDS011;42288;52.182;21.156;2023-08-30T13:41:52;7.83;;;5.63;;
16979;SDS011;42288;52.182;21.156;2023-08-30T13:44:17;8.97;;;6.23;;
16979;SDS011;42288;52.182;21.156;2023-08-30T13:46:43;10.13;;;5.37;;
16979;SDS011;42288;52.182;21.156;2023-08-30T13:49:09;11.10;;;5.97;;
16979;SDS011;42288;52.182;21.156;2023-08-30T13:51:35;8.27;;;5.83;;
16979;SDS011;42288;52.182;21.156;2023-08-30T13:54:01;11.23;;;6.90;;
16979;SDS011;42288;52.182;21.156;2023-08-30T13:56:27;10.63;;;7.00;;
16979;SDS011;42288;52.182;21.156;2023-08-30T13:58:53;10.03;;;6.80;;
16979;SDS011;42288;52.182;21.156;2023-08-30T14:01:20;10.00;;;6.87;;
16979;SDS011;42288;52.182;21.156;2023-08-30T14:03:46;16.03;;;6.57;;
16979;SDS011;42288;52.182;21.156;2023-08-30T14:06:11;17.00;;;6.67;;
16979;SDS011;42288;52.182;21.156;2023-08-30T14:08:37;13.83;;;6.20;;
16979;SDS011;42288;52.182;21.156;2023-08-30T14:11:02;11.47;;;6.10;;
16979;SDS011;42288;52.182;21.156;2023-08-30T14:13:28;10.63;;;6.13;;